createdAt,value
2022-09-02T00:00:20.529Z,2.50
2022-09-02T00:02:23.279Z,2.60
2022-09-02T00:04:26.584Z,2.67
2022-09-02T00:06:30.143Z,2.50
2022-09-02T00:08:32.459Z,2.80
2022-09-02T00:10:38.414Z,2.60
2022-09-02T00:12:40.602Z,2.70
2022-09-02T00:14:42.893Z,2.83
2022-09-02T00:16:51.613Z,3.00
2022-09-02T00:18:54.242Z,3.00
2022-09-02T00:20:56.797Z,3.50
2022-09-02T00:22:59.506Z,2.50
2022-09-02T00:25:02.043Z,2.90
2022-09-02T00:27:04.400Z,3.50
2022-09-02T00:29:07.123Z,3.30
2022-09-02T00:31:09.628Z,3.40
2022-09-02T00:33:15.350Z,2.93
2022-09-02T00:35:19.219Z,3.67
2022-09-02T00:37:21.441Z,3.03
2022-09-02T00:39:23.604Z,3.87
2022-09-02T00:41:28.202Z,3.70
2022-09-02T00:43:49.794Z,3.60
2022-09-02T00:45:53.386Z,3.77
2022-09-02T00:47:55.620Z,3.50
2022-09-02T00:49:58.466Z,2.90
2022-09-02T00:52:03.950Z,3.17
2022-09-02T00:54:07.501Z,3.10
2022-09-02T00:56:13.738Z,3.10
2022-09-02T00:58:20.953Z,2.77
2022-09-02T01:00:31.352Z,3.13
2022-09-02T01:02:38.693Z,2.70
2022-09-02T01:04:43.157Z,2.90
2022-09-02T01:06:45.383Z,2.90
2022-09-02T01:08:49.741Z,3.23
2022-09-02T01:10:55.427Z,3.40
2022-09-02T01:12:59.997Z,3.17
2022-09-02T01:15:04.189Z,3.10
2022-09-02T01:17:07.797Z,2.80
2022-09-02T01:19:23.669Z,3.07
2022-09-02T01:21:25.816Z,2.90
2022-09-02T01:23:29.410Z,3.00
2022-09-02T01:25:35.065Z,3.57
2022-09-02T01:27:37.321Z,3.23
2022-09-02T01:29:39.560Z,3.30
2022-09-02T01:31:41.737Z,3.10
2022-09-02T01:33:44.042Z,2.80
2022-09-02T01:35:48.156Z,3.47
2022-09-02T01:37:54.782Z,3.00
2022-09-02T01:39:58.652Z,3.13
2022-09-02T01:42:01.233Z,3.00
2022-09-02T01:44:04.966Z,3.23
2022-09-02T01:46:07.231Z,3.60
2022-09-02T01:48:09.718Z,3.57
2022-09-02T01:50:11.884Z,3.13
2022-09-02T01:52:14.155Z,2.97
2022-09-02T01:54:16.356Z,2.83
2022-09-02T01:56:18.505Z,3.27
2022-09-02T01:58:20.807Z,3.30
2022-09-02T02:00:23.570Z,3.17
2022-09-02T02:02:25.745Z,3.17
2022-09-02T02:04:28.918Z,3.20
2022-09-02T02:06:32.475Z,3.57
2022-09-02T02:08:34.877Z,3.63
2022-09-02T02:10:37.578Z,3.57
2022-09-02T02:12:40.826Z,3.43
2022-09-02T02:14:43.407Z,3.20
2022-09-02T02:16:46.308Z,4.00
2022-09-02T02:18:48.508Z,3.10
2022-09-02T02:20:50.651Z,3.30
2022-09-02T02:22:52.871Z,3.20
2022-09-02T02:24:55.044Z,3.80
2022-09-02T02:26:57.186Z,3.03
2022-09-02T02:28:59.443Z,3.80
2022-09-02T02:31:02.983Z,3.20
2022-09-02T02:33:06.609Z,3.67
2022-09-02T02:35:09.596Z,3.17
2022-09-02T02:37:13.067Z,3.60
2022-09-02T02:39:15.317Z,3.60
2022-09-02T02:41:18.709Z,3.60
2022-09-02T02:43:21.345Z,3.97
2022-09-02T02:45:23.833Z,3.53
2022-09-02T02:47:26.885Z,3.63
2022-09-02T02:49:29.260Z,2.97
2022-09-02T02:51:31.607Z,3.27
2022-09-02T02:53:34.715Z,3.47
2022-09-02T02:55:36.978Z,3.30
2022-09-02T02:57:40.379Z,3.20
2022-09-02T02:59:42.737Z,3.17
2022-09-02T03:01:47.310Z,3.50
2022-09-02T03:03:52.181Z,3.00
2022-09-02T03:05:55.637Z,3.10
2022-09-02T03:07:58.156Z,3.43
2022-09-02T03:10:00.479Z,3.33
2022-09-02T03:12:03.139Z,3.53
2022-09-02T03:14:06.477Z,3.10
2022-09-02T03:16:09.383Z,3.00
2022-09-02T03:18:11.625Z,3.20
2022-09-02T03:20:15.877Z,3.80
2022-09-02T03:22:20.376Z,3.00
2022-09-02T03:24:23.188Z,3.47
2022-09-02T03:26:26.220Z,3.60
2022-09-02T03:28:28.775Z,3.40
2022-09-02T03:30:33.805Z,3.50
2022-09-02T03:32:36.583Z,3.70
2022-09-02T03:34:38.972Z,3.87
2022-09-02T03:36:44.276Z,3.20
2022-09-02T03:38:49.674Z,3.43
2022-09-02T03:40:51.889Z,3.80
2022-09-02T03:42:59.721Z,3.60
2022-09-02T03:45:03.507Z,3.50
2022-09-02T03:47:06.085Z,3.10
2022-09-02T03:49:08.690Z,4.03
2022-09-02T03:51:12.210Z,3.87
2022-09-02T03:53:18.220Z,3.90
2022-09-02T03:55:24.408Z,3.57
2022-09-02T03:57:27.261Z,3.93
2022-09-02T03:59:29.510Z,4.77
2022-09-02T04:01:35.057Z,3.60
2022-09-02T04:03:38.977Z,4.03
2022-09-02T04:05:41.239Z,3.87
2022-09-02T04:07:44.496Z,4.00
2022-09-02T04:09:49.905Z,4.03
2022-09-02T04:11:53.061Z,4.07
2022-09-02T04:13:55.339Z,3.90
2022-09-02T04:16:02.070Z,4.10
2022-09-02T04:18:04.580Z,4.13
2022-09-02T04:20:09.563Z,4.13
2022-09-02T04:22:30.244Z,3.97
2022-09-02T04:24:32.492Z,3.90
2022-09-02T04:26:34.978Z,4.17
2022-09-02T04:28:38.132Z,3.53
2022-09-02T04:30:41.613Z,4.13
2022-09-02T04:32:44.187Z,3.50
2022-09-02T04:34:46.525Z,3.73
2022-09-02T04:36:53.424Z,3.87
2022-09-02T04:38:56.225Z,3.80
2022-09-02T04:41:01.945Z,3.60
2022-09-02T04:43:04.429Z,3.80
2022-09-02T04:45:08.815Z,3.60
2022-09-02T04:47:12.780Z,3.70
2022-09-02T04:49:15.831Z,3.87
2022-09-02T04:51:22.090Z,3.57
2022-09-02T04:53:25.370Z,3.80
2022-09-02T04:55:28.014Z,3.37
2022-09-02T04:57:30.731Z,4.27
2022-09-02T04:59:36.413Z,3.40
2022-09-02T05:01:43.079Z,3.90
2022-09-02T05:03:51.882Z,4.07
2022-09-02T05:06:03.406Z,3.80
2022-09-02T05:08:07.635Z,3.80
2022-09-02T05:10:12.531Z,3.80
2022-09-02T05:12:18.235Z,3.20
2022-09-02T05:14:31.506Z,3.83
2022-09-02T05:16:40.047Z,3.57
2022-09-02T05:18:46.631Z,3.73
2022-09-02T05:20:48.841Z,3.37
2022-09-02T05:22:53.200Z,3.50
2022-09-02T05:24:56.846Z,4.00
2022-09-02T05:26:59.196Z,3.63
2022-09-02T05:29:07.007Z,3.70
2022-09-02T05:31:12.902Z,3.63
2022-09-02T05:33:15.873Z,3.70
2022-09-02T05:35:21.609Z,3.97
2022-09-02T05:37:25.860Z,3.80
2022-09-02T05:39:28.207Z,2.97
2022-09-02T05:41:30.708Z,4.03
2022-09-02T05:43:37.415Z,3.87
2022-09-02T05:45:40.854Z,3.63
2022-09-02T05:47:43.112Z,3.53
2022-09-02T05:49:45.477Z,3.13
2022-09-02T05:51:55.812Z,3.37
2022-09-02T05:54:03.748Z,3.87
2022-09-02T05:56:06.459Z,3.73
2022-09-02T05:58:09.944Z,2.90
2022-09-02T06:00:18.260Z,3.57
2022-09-02T06:02:33.142Z,2.63
2022-09-02T06:04:39.963Z,3.50
2022-09-02T06:06:42.764Z,3.10
2022-09-02T06:08:45.562Z,2.80
2022-09-02T06:10:47.869Z,2.67
2022-09-02T06:12:54.463Z,2.57
2022-09-02T06:15:00.444Z,2.30
2022-09-02T06:17:03.171Z,2.30
2022-09-02T06:19:36.902Z,2.60
2022-09-02T06:21:42.199Z,2.43
2022-09-02T06:23:44.993Z,2.27
2022-09-02T06:25:48.909Z,2.60
2022-09-02T06:27:51.150Z,2.40
2022-09-02T06:29:53.572Z,1.97
2022-09-02T06:31:58.947Z,2.23
2022-09-02T06:34:03.548Z,2.20
2022-09-02T06:36:12.288Z,2.30
2022-09-02T06:38:16.452Z,2.13
2022-09-02T06:40:19.593Z,2.57
2022-09-02T06:42:23.963Z,2.60
2022-09-02T06:44:42.820Z,2.07
2022-09-02T06:46:47.951Z,2.17
2022-09-02T06:48:50.494Z,2.47
2022-09-02T06:50:55.404Z,2.20
2022-09-02T06:52:58.049Z,1.80
2022-09-02T06:55:01.340Z,2.23
2022-09-02T06:57:03.860Z,2.53
2022-09-02T06:59:07.266Z,2.17
2022-09-02T07:01:27.612Z,2.20
2022-09-02T07:03:48.783Z,2.30
2022-09-02T07:06:09.735Z,2.20
2022-09-02T07:08:14.113Z,1.87
2022-09-02T07:10:17.893Z,2.20
2022-09-02T07:12:27.348Z,2.10
2022-09-02T07:14:39.659Z,1.80
2022-09-02T07:16:46.581Z,2.20
2022-09-02T07:18:49.591Z,2.50
2022-09-02T07:20:52.697Z,2.13
2022-09-02T07:22:56.812Z,2.23
2022-09-02T07:25:02.001Z,1.90
2022-09-02T07:27:06.170Z,1.57
2022-09-02T07:29:11.284Z,2.27
2022-09-02T07:31:16.465Z,1.93
2022-09-02T07:33:19.550Z,1.80
2022-09-02T07:35:22.476Z,2.03
2022-09-02T07:37:25.759Z,2.10
2022-09-02T07:39:28.955Z,2.00
2022-09-02T07:41:31.957Z,2.17
2022-09-02T07:43:35.289Z,2.63
2022-09-02T07:45:39.153Z,2.20
2022-09-02T07:47:41.462Z,2.10
2022-09-02T07:52:08.248Z,2.07
2022-09-02T07:54:12.999Z,1.70
2022-09-02T07:56:15.828Z,1.87
2022-09-02T07:58:20.466Z,1.90
2022-09-02T08:00:23.218Z,1.70
2022-09-02T08:02:27.085Z,2.17
2022-09-02T08:04:30.122Z,1.70
2022-09-02T08:06:33.652Z,2.07
2022-09-02T08:08:37.235Z,1.93
2022-09-02T08:10:39.755Z,2.10
2022-09-02T08:12:42.888Z,2.00
2022-09-02T08:14:45.027Z,2.10
2022-09-02T08:16:47.625Z,1.80
2022-09-02T08:18:49.835Z,1.80
2022-09-02T08:20:52.011Z,1.40
2022-09-02T08:23:05.099Z,1.57
2022-09-02T08:25:14.059Z,1.80
2022-09-02T08:27:16.196Z,1.90
2022-09-02T08:29:18.335Z,2.00
2022-09-02T08:31:20.954Z,1.50
2022-09-02T08:33:23.401Z,1.90
2022-09-02T08:35:26.069Z,1.70
2022-09-02T08:37:29.489Z,1.70
2022-09-02T08:39:31.791Z,1.60
2022-09-02T08:41:41.731Z,1.93
2022-09-02T08:43:44.903Z,1.90
2022-09-02T08:45:47.776Z,2.40
2022-09-02T08:48:01.704Z,2.03
2022-09-02T08:50:13.155Z,1.50
2022-09-02T08:52:39.675Z,1.70
2022-09-02T08:54:55.622Z,1.63
2022-09-02T08:56:59.026Z,1.57
2022-09-02T08:59:03.542Z,1.67
2022-09-02T09:01:05.849Z,1.70
2022-09-02T09:03:25.230Z,2.27
2022-09-02T09:05:36.635Z,1.53
2022-09-02T09:08:17.000Z,1.50
2022-09-02T09:10:39.051Z,1.40
2022-09-02T09:13:08.897Z,1.50
2022-09-02T09:15:29.749Z,1.70
2022-09-02T09:17:44.175Z,1.77
2022-09-02T09:19:53.997Z,1.30
2022-09-02T09:21:57.686Z,2.03
2022-09-02T09:24:04.460Z,1.43
2022-09-02T09:26:22.961Z,1.40
2022-09-02T09:28:25.203Z,1.40
2022-09-02T09:30:28.540Z,1.50
2022-09-02T09:32:36.791Z,1.77
2022-09-02T09:35:01.739Z,1.40
2022-09-02T09:37:03.907Z,1.53
2022-09-02T09:39:21.575Z,1.40
2022-09-02T09:41:29.163Z,1.20
2022-09-02T09:43:32.074Z,1.20
2022-09-02T09:45:45.901Z,1.50
2022-09-02T09:48:27.744Z,1.50
2022-09-02T09:50:29.972Z,1.27
2022-09-02T09:52:32.182Z,1.23
2022-09-02T09:54:34.385Z,1.00
2022-09-02T09:56:38.479Z,1.20
2022-09-02T09:58:40.695Z,1.03
2022-09-02T10:00:43.117Z,1.20
2022-09-02T10:02:55.234Z,1.20
2022-09-02T10:05:16.831Z,1.07
2022-09-02T10:07:36.791Z,1.10
2022-09-02T10:09:39.203Z,1.20
2022-09-02T10:11:56.214Z,1.17
2022-09-02T10:14:04.391Z,1.23
2022-09-02T10:16:24.836Z,1.10
2022-09-02T10:19:02.966Z,1.23
2022-09-02T10:21:16.178Z,1.20
2022-09-02T10:23:27.332Z,1.10
2022-09-02T10:25:43.104Z,1.10
2022-09-02T10:28:04.474Z,1.27
2022-09-02T10:30:19.144Z,0.90
2022-09-02T10:32:34.266Z,1.20
2022-09-02T10:35:00.921Z,1.30
2022-09-02T10:37:21.079Z,1.20
2022-09-02T10:39:23.182Z,1.30
2022-09-02T10:41:34.106Z,1.30
2022-09-02T10:43:45.352Z,1.10
2022-09-02T10:45:58.507Z,1.13
2022-09-02T10:48:15.860Z,1.07
2022-09-02T10:50:28.051Z,1.10
2022-09-02T10:52:48.717Z,1.00
2022-09-02T10:55:04.274Z,1.07
2022-09-02T10:57:13.489Z,1.00
2022-09-02T10:59:22.577Z,1.20
2022-09-02T11:01:29.636Z,1.20
2022-09-02T11:03:42.432Z,1.20
2022-09-02T11:05:52.863Z,0.93
2022-09-02T11:08:12.725Z,1.27
2022-09-02T11:10:20.744Z,1.00
2022-09-02T11:12:46.690Z,1.23
2022-09-02T11:14:59.673Z,1.00
2022-09-02T11:17:13.343Z,1.20
2022-09-02T11:20:03.422Z,1.10
2022-09-02T11:22:23.142Z,1.00
2022-09-02T11:24:47.413Z,1.00
2022-09-02T11:26:58.678Z,1.23
2022-09-02T11:29:10.699Z,0.97
2022-09-02T11:31:17.680Z,1.57
2022-09-02T11:33:26.634Z,1.10
2022-09-02T11:35:34.051Z,0.93
2022-09-02T11:37:36.134Z,1.00
2022-09-02T11:39:54.374Z,1.10
2022-09-02T11:42:15.823Z,1.20
2022-09-02T11:44:52.799Z,0.90
2022-09-02T11:47:10.363Z,0.90
2022-09-02T11:49:33.927Z,1.00
2022-09-02T11:52:01.879Z,1.20
2022-09-02T11:54:05.312Z,1.10
2022-09-02T11:56:24.545Z,3.13
2022-09-02T11:58:50.192Z,2.60
2022-09-02T12:00:55.677Z,1.00
2022-09-02T12:03:16.843Z,1.00
2022-09-02T12:05:32.246Z,1.00
2022-09-02T12:07:48.626Z,1.37
2022-09-02T12:09:53.030Z,1.10
2022-09-02T12:11:55.871Z,1.43
2022-09-02T12:14:00.017Z,1.03
2022-09-02T12:16:13.321Z,1.20
2022-09-02T12:18:31.043Z,1.03
2022-09-02T12:20:39.977Z,0.93
2022-09-02T12:22:42.561Z,1.00
2022-09-02T12:24:57.234Z,1.30
2022-09-02T12:26:59.288Z,1.00
2022-09-02T12:29:32.600Z,1.10
2022-09-02T12:31:42.709Z,1.23
2022-09-02T12:33:54.285Z,1.00
2022-09-02T12:35:58.298Z,1.00
2022-09-02T12:38:12.701Z,1.10
2022-09-02T12:40:17.760Z,1.10
2022-09-02T12:42:30.377Z,1.10
2022-09-02T12:44:34.805Z,1.30
2022-09-02T12:46:44.342Z,1.10
2022-09-02T12:49:07.389Z,1.10
2022-09-02T12:51:09.533Z,0.97
2022-09-02T12:53:25.449Z,1.20
2022-09-02T12:55:30.235Z,0.97
2022-09-02T12:57:42.761Z,1.00
2022-09-02T12:59:46.656Z,1.30
2022-09-02T13:02:07.149Z,1.10
2022-09-02T13:04:33.816Z,1.00
2022-09-02T13:07:02.111Z,1.30
2022-09-02T13:09:31.823Z,1.23
2022-09-02T13:11:40.655Z,1.10
2022-09-02T13:13:59.082Z,1.50
2022-09-02T13:16:07.159Z,1.00
2022-09-02T13:18:32.829Z,0.93
2022-09-02T13:20:56.372Z,1.20
2022-09-02T13:23:01.271Z,1.07
2022-09-02T13:25:41.476Z,1.10
2022-09-02T13:27:56.271Z,0.90
2022-09-02T13:30:32.036Z,1.13
2022-09-02T13:32:34.669Z,1.03
2022-09-02T13:34:48.779Z,1.10
2022-09-02T13:36:50.748Z,1.17
2022-09-02T13:38:52.766Z,1.07
2022-09-02T13:40:55.107Z,1.20
2022-09-02T13:43:02.813Z,1.20
2022-09-02T13:45:25.478Z,1.10
2022-09-02T13:47:27.617Z,1.27
2022-09-02T13:49:38.098Z,1.30
2022-09-02T13:51:42.496Z,1.20
2022-09-02T13:54:18.836Z,1.30
2022-09-02T13:56:11.503Z,1.10
2022-09-02T13:58:28.750Z,1.00
2022-09-02T14:00:38.425Z,1.60
2022-09-02T14:02:40.595Z,1.27
2022-09-02T14:04:43.315Z,1.10
2022-09-02T14:06:46.689Z,1.60
2022-09-02T14:08:51.046Z,1.10
2022-09-02T14:10:54.002Z,1.13
2022-09-02T14:12:56.630Z,1.10
2022-09-02T14:14:59.248Z,1.10
2022-09-02T14:17:21.410Z,1.27
2022-09-02T14:19:25.058Z,1.10
2022-09-02T14:21:27.080Z,1.03
2022-09-02T14:23:33.463Z,1.60
2022-09-02T14:25:37.611Z,1.00
2022-09-02T14:27:40.503Z,1.30
2022-09-02T14:29:45.316Z,1.10
2022-09-02T14:32:02.439Z,1.10
2022-09-02T14:34:06.404Z,1.10
2022-09-02T14:36:27.495Z,1.20
2022-09-02T14:38:58.825Z,1.30
2022-09-02T14:41:05.457Z,1.20
2022-09-02T14:43:15.062Z,1.10
2022-09-02T14:45:34.204Z,1.33
2022-09-02T14:47:39.987Z,1.23
2022-09-02T14:49:50.102Z,1.10
2022-09-02T14:51:54.502Z,1.00
2022-09-02T14:53:56.503Z,1.30
2022-09-02T14:55:59.109Z,1.10
2022-09-02T14:58:04.224Z,1.10
2022-09-02T15:00:11.927Z,1.30
2022-09-02T15:02:28.949Z,1.03
2022-09-02T15:04:35.581Z,1.20
2022-09-02T15:06:37.619Z,1.30
2022-09-02T15:08:39.620Z,1.30
2022-09-02T15:10:42.259Z,1.30
2022-09-02T15:12:54.754Z,1.20
2022-09-02T15:14:57.457Z,1.27
2022-09-02T15:17:07.619Z,1.40
2022-09-02T15:19:09.603Z,1.20
2022-09-02T15:21:11.839Z,1.10
2022-09-02T15:23:15.563Z,1.33
2022-09-02T15:25:17.539Z,1.20
2022-09-02T15:27:21.683Z,1.17
2022-09-02T15:29:28.292Z,1.23
2022-09-02T15:31:31.290Z,1.20
2022-09-02T15:33:33.667Z,1.40
2022-09-02T15:35:35.802Z,1.10
2022-09-02T15:37:38.922Z,1.23
2022-09-02T15:39:41.296Z,1.30
2022-09-02T15:41:44.716Z,1.30
2022-09-02T15:43:47.847Z,1.20
2022-09-02T15:45:50.681Z,1.10
2022-09-02T15:47:52.696Z,0.97
2022-09-02T15:49:54.727Z,1.60
2022-09-02T15:51:56.863Z,1.37
2022-09-02T15:54:01.438Z,1.40
2022-09-02T15:56:03.505Z,1.30
2022-09-02T15:58:05.559Z,1.47
2022-09-02T16:00:09.818Z,1.17
2022-09-02T16:02:17.373Z,1.33
2022-09-02T16:04:19.516Z,2.03
2022-09-02T16:06:21.745Z,1.40
2022-09-02T16:08:23.739Z,1.20
2022-09-02T16:10:25.738Z,1.20
2022-09-02T16:12:27.695Z,1.27
2022-09-02T16:14:29.718Z,1.20
2022-09-02T16:16:32.529Z,1.10
2022-09-02T16:18:35.794Z,1.60
2022-09-02T16:20:37.939Z,1.37
2022-09-02T16:22:40.196Z,1.53
2022-09-02T16:24:42.188Z,1.40
2022-09-02T16:26:44.483Z,1.30
2022-09-02T16:28:46.725Z,1.67
2022-09-02T16:30:48.769Z,1.53
2022-09-02T16:32:51.676Z,1.70
2022-09-02T16:34:55.697Z,1.50
2022-09-02T16:36:57.674Z,1.40
2022-09-02T16:39:01.075Z,1.60
2022-09-02T16:41:04.836Z,1.10
2022-09-02T16:43:06.824Z,1.67
2022-09-02T16:45:09.409Z,1.40
2022-09-02T16:47:13.733Z,1.30
2022-09-02T16:49:18.497Z,1.30
2022-09-02T16:51:20.481Z,1.50
2022-09-02T16:53:22.713Z,1.73
2022-09-02T16:55:24.870Z,1.33
2022-09-02T16:57:26.860Z,1.70
2022-09-02T16:59:31.412Z,1.33
2022-09-02T17:01:33.805Z,1.67
2022-09-02T17:03:36.906Z,1.47
2022-09-02T17:05:39.665Z,1.77
2022-09-02T17:07:41.804Z,1.70
2022-09-02T17:09:43.817Z,1.63
2022-09-02T17:11:45.820Z,1.63
2022-09-02T17:13:49.785Z,1.67
2022-09-02T17:15:51.732Z,1.60
2022-09-02T17:17:54.396Z,1.13
2022-09-02T17:19:56.399Z,1.40
2022-09-02T17:21:58.651Z,1.60
2022-09-02T17:24:01.486Z,1.40
2022-09-02T17:26:03.507Z,1.67
2022-09-02T17:28:05.525Z,1.60
2022-09-02T17:30:11.617Z,1.33
2022-09-02T17:32:13.763Z,1.13
2022-09-02T17:34:16.177Z,1.40
2022-09-02T17:36:18.734Z,1.67
2022-09-02T17:38:24.186Z,1.40
2022-09-02T17:40:47.072Z,1.60
2022-09-02T17:42:49.157Z,1.50
2022-09-02T17:44:51.062Z,1.40
2022-09-02T17:46:55.757Z,1.60
2022-09-02T17:49:15.792Z,1.50
2022-09-02T17:51:19.867Z,1.50
2022-09-02T17:53:23.140Z,1.33
2022-09-02T17:55:25.112Z,2.03
2022-09-02T17:57:33.875Z,1.57
2022-09-02T17:59:46.681Z,2.10
2022-09-02T18:01:48.673Z,1.90
2022-09-02T18:03:50.682Z,1.90
2022-09-02T18:06:09.406Z,1.63
2022-09-02T18:08:15.541Z,1.77
2022-09-02T18:10:17.693Z,2.10
2022-09-02T18:12:19.901Z,1.80
2022-09-02T18:14:43.464Z,2.07
2022-09-02T18:17:14.263Z,1.93
2022-09-02T18:19:29.107Z,1.70
2022-09-02T18:21:58.303Z,1.60
2022-09-02T18:24:00.487Z,2.23
2022-09-02T18:26:11.166Z,1.60
2022-09-02T18:28:13.232Z,2.10
2022-09-02T18:30:21.271Z,1.47
2022-09-02T18:32:33.350Z,2.10
2022-09-02T18:34:51.306Z,2.63
2022-09-02T18:37:13.912Z,1.70
2022-09-02T18:39:16.578Z,2.57
2022-09-02T18:41:30.583Z,1.77
2022-09-02T18:43:51.419Z,1.70
2022-09-02T18:45:54.703Z,1.90
2022-09-02T18:48:12.435Z,2.00
2022-09-02T18:50:45.039Z,1.90
2022-09-02T18:52:45.459Z,1.63
2022-09-02T18:54:51.642Z,1.80
2022-09-02T18:56:56.990Z,1.70
2022-09-02T18:59:15.306Z,1.43
2022-09-02T19:01:17.352Z,2.07
2022-09-02T19:03:19.374Z,1.50
2022-09-02T19:05:25.001Z,1.43
2022-09-02T19:07:45.772Z,1.70
2022-09-02T19:09:50.430Z,1.73
2022-09-02T19:11:53.109Z,1.80
2022-09-02T19:13:57.522Z,1.50
2022-09-02T19:16:04.298Z,2.20
2022-09-02T19:18:07.123Z,1.80
2022-09-02T19:20:09.631Z,2.43
2022-09-02T19:22:11.708Z,3.20
2022-09-02T19:24:21.445Z,3.33
2022-09-02T19:26:23.997Z,4.20
2022-09-02T19:28:26.683Z,3.90
2022-09-02T19:30:29.019Z,4.43
2022-09-02T19:32:33.835Z,3.63
2022-09-02T19:34:38.527Z,2.63
2022-09-02T19:36:43.147Z,2.77
2022-09-02T19:38:45.490Z,3.17
2022-09-02T19:40:49.605Z,2.93
2022-09-02T19:42:53.015Z,3.27
2022-09-02T19:44:55.090Z,3.17
2022-09-02T19:47:49.677Z,3.40
2022-09-02T19:49:22.287Z,2.73
2022-09-02T19:51:27.139Z,2.30
2022-09-02T19:53:32.246Z,2.60
2022-09-02T19:55:34.595Z,2.63
2022-09-02T19:57:37.314Z,2.93
2022-09-02T19:59:39.445Z,2.93
2022-09-02T20:01:41.458Z,3.37
2022-09-02T20:03:43.477Z,3.17
2022-09-02T20:05:45.642Z,2.40
2022-09-02T20:07:47.804Z,2.80
2022-09-02T20:09:49.817Z,2.53
2022-09-02T20:11:52.512Z,2.57
2022-09-02T20:13:55.772Z,2.43
2022-09-02T20:15:58.110Z,2.37
2022-09-02T20:18:12.801Z,2.73
2022-09-02T20:20:17.901Z,2.87
2022-09-02T20:22:20.178Z,2.30
2022-09-02T20:24:25.826Z,2.30
2022-09-02T20:26:39.634Z,2.70
2022-09-02T20:29:11.806Z,3.90
2022-09-02T20:31:42.552Z,3.07
2022-09-02T20:34:06.942Z,2.60
2022-09-02T20:36:35.083Z,2.90
2022-09-02T20:38:54.295Z,3.13
2022-09-02T20:41:09.161Z,2.63
2022-09-02T20:43:27.127Z,2.93
2022-09-02T20:45:44.716Z,3.27
2022-09-02T20:48:01.139Z,2.50
2022-09-02T20:50:28.270Z,3.17
2022-09-02T20:53:11.981Z,3.67
2022-09-02T20:55:40.782Z,3.23
2022-09-02T20:58:19.310Z,3.40
2022-09-02T21:00:21.547Z,3.57
2022-09-02T21:02:28.421Z,2.97
2022-09-02T21:04:45.208Z,2.83
2022-09-02T21:06:53.990Z,3.23
2022-09-02T21:09:05.350Z,2.50
2022-09-02T21:11:14.661Z,2.20
2022-09-02T21:13:41.566Z,2.50
2022-09-02T21:15:50.409Z,2.30
2022-09-02T21:18:02.210Z,2.60
2022-09-02T21:20:13.206Z,1.87
2022-09-02T21:22:30.843Z,2.00
2022-09-02T21:24:36.491Z,2.37
2022-09-02T21:26:56.794Z,3.47
2022-09-02T21:29:11.703Z,3.60
2022-09-02T21:31:35.912Z,3.20
2022-09-02T21:33:38.006Z,2.83
2022-09-02T21:35:51.368Z,3.20
2022-09-02T21:37:59.146Z,3.03
2022-09-02T21:40:07.016Z,3.07
2022-09-02T21:42:50.607Z,2.50
2022-09-02T21:45:05.975Z,2.50
2022-09-02T21:47:19.909Z,2.43
2022-09-02T21:50:00.341Z,2.17
2022-09-02T21:52:08.675Z,2.23
2022-09-02T21:54:25.094Z,1.90
2022-09-02T21:56:45.162Z,1.87
2022-09-02T21:58:56.704Z,2.13
2022-09-02T22:01:44.513Z,1.60
2022-09-02T22:03:51.269Z,2.20
2022-09-02T22:05:58.475Z,1.70
2022-09-02T22:08:04.573Z,1.90
2022-09-02T22:10:12.688Z,1.83
2022-09-02T22:12:14.980Z,1.53
2022-09-02T22:14:29.764Z,2.07
2022-09-02T22:16:47.294Z,2.57
2022-09-02T22:19:01.648Z,2.77
2022-09-02T22:21:19.731Z,3.37
2022-09-02T22:23:26.130Z,2.90
2022-09-02T22:25:29.775Z,2.70
2022-09-02T22:27:39.697Z,2.43
2022-09-02T22:30:08.270Z,3.03
2022-09-02T22:32:14.476Z,2.30
2022-09-02T22:34:18.570Z,2.40
2022-09-02T22:36:29.632Z,2.40
2022-09-02T22:38:41.780Z,2.10
2022-09-02T22:40:51.935Z,2.00
2022-09-02T22:42:58.288Z,2.07
2022-09-02T22:45:35.638Z,2.03
2022-09-02T22:48:00.048Z,2.00
2022-09-02T22:50:22.544Z,2.03
2022-09-02T22:52:46.158Z,1.70
2022-09-02T22:54:48.637Z,2.40
2022-09-02T22:57:13.936Z,2.10
2022-09-02T22:59:48.067Z,1.50
2022-09-02T23:02:31.894Z,1.90
2022-09-02T23:04:48.301Z,2.03
2022-09-02T23:06:55.072Z,1.40
2022-09-02T23:09:05.633Z,1.90
2022-09-02T23:11:12.469Z,1.53
2022-09-02T23:13:30.936Z,1.70
2022-09-02T23:15:37.308Z,1.57
2022-09-02T23:17:57.816Z,1.43
2022-09-02T23:20:32.278Z,1.80
2022-09-02T23:22:41.872Z,1.63
2022-09-02T23:24:51.976Z,1.83
2022-09-02T23:27:05.296Z,1.70
2022-09-02T23:29:40.090Z,1.90
2022-09-02T23:32:03.216Z,1.63
2022-09-02T23:34:31.334Z,1.77
2022-09-02T23:36:47.390Z,1.70
2022-09-02T23:39:02.693Z,2.10
2022-09-02T23:41:08.101Z,1.70
2022-09-02T23:43:14.854Z,1.80
2022-09-02T23:45:26.516Z,1.97
2022-09-02T23:47:43.055Z,1.70
2022-09-02T23:49:54.346Z,1.53
2022-09-02T23:52:34.353Z,1.83
2022-09-02T23:54:54.990Z,1.70
2022-09-02T23:57:15.993Z,2.00
2022-09-02T23:59:39.765Z,1.90
